El Trebol, Argentina
Current Conditions -  °F | °C
As of 1:00 AM on Saturday 01 Nov 2014 (Local Time) from SAAR Reporting Station
Broken Clouds Broken Clouds  
Wind Chill: 61°   Ceiling: 10000
Heat Index: 61°   Visibility: 6mi
Dew Point: 57°   Wind: 15mph
Humidity: 88%   Direction: 140°SE
Pressure: 30"   Gusts: NA
Location:  32.2°S, 61.7°W
Report Text: SAAR 010400Z 14013KT 9999 SCT020 BKN10016/14 Q1016
Loading
Personal Weather Stations






























Interactive Weather Map New forecast layout! Learn more

10-Day Weather Forecast

Advertisements
Track Severe Weather on mobile